Time;durP1;ratioP1;P1;durP2;ratioP2;P2;SDS_P1;SDS_P2;PMS_P1;PMS_P2;Temp;Humidity;BMP_temperature;BMP_pressure;BME280_temperature;BME280_humidity;BME280_pressure;Samples;Min_cycle;Max_cycle;Signal;HPM_P1;HPM_P2
2022/01/13 00:00:51;;;;;;;;;;;3.90;99.90;;;;;;6202578;23;19911;-88
2022/01/13 00:03:20;;;;;;;;;;;3.90;99.90;;;;;;6191402;23;19935;-88
2022/01/13 00:05:53;;;;;;;;;;;4.00;99.90;;;;;;6205961;23;19919;-89
2022/01/13 00:08:19;;;;;;;;;;;3.90;99.90;;;;;;6210861;23;19922;-91
2022/01/13 00:10:44;;;;;;;;;;;3.90;99.90;;;;;;6164371;23;19912;-91
2022/01/13 00:13:13;;;;;;;;;;;4.00;99.90;;;;;;6188116;23;19927;-89
2022/01/13 00:16:02;;;;;;;;;;;4.00;99.90;;;;;;6162645;23;20118;-89
2022/01/13 00:18:48;;;;;;;;;;;4.00;99.90;;;;;;6217704;23;19955;-89
2022/01/13 00:24:04;;;;;;;;;;;4.00;99.90;;;;;;6155000;23;19912;-91
2022/01/13 00:26:32;;;;;;;;;;;4.00;99.90;;;;;;6182999;23;19919;-92
2022/01/13 00:29:01;;;;;;;;;;;4.00;99.90;;;;;;6251295;23;19919;-95
2022/01/13 00:31:32;;;;;;;;;;;4.00;99.90;;;;;;6146024;23;20307;-91
2022/01/13 00:34:01;;;;;;;;;;;4.00;99.90;;;;;;6179044;23;20150;-90
2022/01/13 00:36:28;;;;;;;;;;;4.00;99.90;;;;;;6162628;23;19908;-91
2022/01/13 00:38:54;;;;;;;;;;;4.00;99.90;;;;;;6215895;23;19938;-90
2022/01/13 00:41:20;;;;;;;;;;;4.10;99.90;;;;;;6218176;23;20014;-90
2022/01/13 00:43:47;;;;;;;;;;;4.10;99.90;;;;;;6228995;23;19981;-88
2022/01/13 00:46:25;;;;;;;;;;;4.00;99.90;;;;;;6200645;23;19990;-90
2022/01/13 00:48:51;;;;;;;;;;;4.10;99.90;;;;;;6207347;23;20235;-92
2022/01/13 00:51:18;;;;;;;;;;;4.00;99.90;;;;;;6206964;23;19912;-90
2022/01/13 00:53:44;;;;;;;;;;;4.00;99.90;;;;;;6208691;23;19922;-90
2022/01/13 00:56:10;;;;;;;;;;;4.10;99.90;;;;;;6175094;23;19908;-91
2022/01/13 00:58:36;;;;;;;;;;;4.10;99.90;;;;;;6200251;23;19990;-91
2022/01/13 01:01:03;;;;;;;;;;;4.10;99.90;;;;;;6159531;23;19919;-94
2022/01/13 01:03:29;;;;;;;;;;;4.10;99.90;;;;;;6173454;23;19919;-93
2022/01/13 01:05:56;;;;;;;;;;;4.10;99.90;;;;;;6180920;23;20375;-92
2022/01/13 01:08:23;;;;;;;;;;;4.10;99.90;;;;;;6177349;23;20399;-92
2022/01/13 01:10:50;;;;;;;;;;;4.10;99.90;;;;;;6207585;23;20278;-91
2022/01/13 01:13:20;;;;;;;;;;;4.10;99.90;;;;;;6202800;23;19954;-90
2022/01/13 01:15:50;;;;;;;;;;;4.10;99.90;;;;;;6201933;23;19911;-90
2022/01/13 01:23:41;;;;;;;;;;;4.10;99.90;;;;;;6205764;23;19912;-93
2022/01/13 01:26:25;;;;;;;;;;;4.10;99.90;;;;;;6204390;23;20324;-93
2022/01/13 01:29:02;;;;;;;;;;;4.10;99.90;;;;;;6210625;23;19912;-91
2022/01/13 01:31:33;;;;;;;;;;;4.10;99.90;;;;;;6213878;23;19912;-89
2022/01/13 01:34:54;;;;;;;;;;;4.10;99.90;;;;;;6226394;23;19900;-89
2022/01/13 01:39:38;;;;;;;;;;;4.10;99.90;;;;;;6164872;22;19924;-89
2022/01/13 01:42:07;;;;;;;;;;;4.10;99.90;;;;;;6157546;23;19912;-90
2022/01/13 01:44:37;;;;;;;;;;;4.10;99.90;;;;;;6194465;23;19915;-89
2022/01/13 01:47:08;;;;;;;;;;;4.10;99.90;;;;;;6193312;23;19936;-92
2022/01/13 01:49:39;;;;;;;;;;;4.10;99.90;;;;;;6165898;23;19962;-91
2022/01/13 01:52:05;;;;;;;;;;;4.10;99.90;;;;;;6165137;23;19912;-92
2022/01/13 01:54:46;;;;;;;;;;;4.10;99.90;;;;;;6181812;23;19923;-87
2022/01/13 01:57:29;;;;;;;;;;;4.20;99.90;;;;;;6225711;23;19916;-89
2022/01/13 01:59:55;;;;;;;;;;;4.10;99.90;;;;;;6188816;23;19915;-91
2022/01/13 02:02:22;;;;;;;;;;;4.10;99.90;;;;;;6174845;23;19908;-93
2022/01/13 02:04:47;;;;;;;;;;;4.10;99.90;;;;;;6172219;23;19908;-92
2022/01/13 02:07:17;;;;;;;;;;;4.10;99.90;;;;;;6165364;23;20048;-91
2022/01/13 02:09:48;;;;;;;;;;;4.10;99.90;;;;;;6133189;23;19918;-92
2022/01/13 02:12:26;;;;;;;;;;;4.20;99.90;;;;;;6148194;23;19912;-92
2022/01/13 02:15:16;;;;;;;;;;;4.10;99.90;;;;;;6194088;23;20823;-90
2022/01/13 02:17:46;;;;;;;;;;;4.10;99.90;;;;;;6121086;23;19959;-91
2022/01/13 02:20:22;;;;;;;;;;;4.10;99.90;;;;;;6131982;23;19909;-89
2022/01/13 02:22:49;;;;;;;;;;;4.10;99.90;;;;;;6104613;23;19944;-89
2022/01/13 02:25:21;;;;;;;;;;;4.10;99.90;;;;;;6150776;23;20011;-91
2022/01/13 02:30:22;;;;;;;;;;;4.10;99.90;;;;;;6192809;22;19920;-93
2022/01/13 02:32:48;;;;;;;;;;;4.10;99.90;;;;;;6180913;23;19911;-90
2022/01/13 02:40:38;;;;;;;;;;;4.10;99.90;;;;;;6166100;22;19939;-90
2022/01/13 02:43:04;;;;;;;;;;;4.10;99.90;;;;;;6171762;23;19935;-91
2022/01/13 02:45:37;;;;;;;;;;;4.10;99.90;;;;;;6195540;23;19900;-92
2022/01/13 02:50:28;;;;;;;;;;;4.10;99.90;;;;;;6223291;23;19923;-91
2022/01/13 02:52:54;;;;;;;;;;;4.10;99.90;;;;;;6175645;23;19903;-90
2022/01/13 02:55:20;;;;;;;;;;;4.10;99.90;;;;;;6175736;23;19907;-91
2022/01/13 02:57:46;;;;;;;;;;;4.10;99.90;;;;;;6180618;23;19947;-89
2022/01/13 03:00:17;;;;;;;;;;;4.10;99.90;;;;;;6205728;23;19922;-89
2022/01/13 03:02:46;;;;;;;;;;;4.10;99.90;;;;;;6203018;23;19970;-89
2022/01/13 03:05:13;;;;;;;;;;;4.10;99.90;;;;;;6211785;23;19942;-90
2022/01/13 03:07:39;;;;;;;;;;;4.10;99.90;;;;;;6222684;23;20580;-91
2022/01/13 03:10:09;;;;;;;;;;;4.10;99.90;;;;;;6207122;23;19918;-90
2022/01/13 03:12:38;;;;;;;;;;;4.10;99.90;;;;;;6223564;23;19918;-89
2022/01/13 03:15:04;;;;;;;;;;;4.00;99.90;;;;;;6211140;23;19911;-90
2022/01/13 03:17:33;;;;;;;;;;;4.10;99.90;;;;;;6125578;22;19939;-89
2022/01/13 03:19:59;;;;;;;;;;;4.10;99.90;;;;;;6206003;23;19922;-93
2022/01/13 03:22:25;;;;;;;;;;;4.10;99.90;;;;;;6210194;23;19911;-89
2022/01/13 03:24:50;;;;;;;;;;;4.10;99.90;;;;;;6237898;23;20179;-90
2022/01/13 03:27:22;;;;;;;;;;;4.00;99.90;;;;;;6185411;23;19916;-91
2022/01/13 03:29:48;;;;;;;;;;;4.10;99.90;;;;;;6221306;23;19919;-90
2022/01/13 03:32:14;;;;;;;;;;;4.10;99.90;;;;;;6224223;23;19911;-90
2022/01/13 03:34:40;;;;;;;;;;;4.10;99.90;;;;;;6207535;23;19919;-89
2022/01/13 03:37:06;;;;;;;;;;;4.10;99.90;;;;;;6197735;23;19908;-92
2022/01/13 03:39:31;;;;;;;;;;;4.00;99.90;;;;;;6176293;23;20383;-91
2022/01/13 03:42:01;;;;;;;;;;;4.00;99.90;;;;;;6166481;23;19908;-90
2022/01/13 03:44:30;;;;;;;;;;;4.10;99.90;;;;;;6191345;23;20004;-93
2022/01/13 03:46:56;;;;;;;;;;;4.10;99.90;;;;;;6183078;23;19908;-91
2022/01/13 03:49:22;;;;;;;;;;;4.00;99.90;;;;;;6182790;23;19974;-92
2022/01/13 03:51:55;;;;;;;;;;;4.10;99.90;;;;;;6198365;23;19908;-90
2022/01/13 03:54:33;;;;;;;;;;;4.10;99.90;;;;;;6198708;23;19926;-90
2022/01/13 03:57:17;;;;;;;;;;;4.10;99.90;;;;;;6195419;23;19938;-94
2022/01/13 03:59:56;;;;;;;;;;;4.00;99.90;;;;;;6177607;23;19938;-91
2022/01/13 04:02:34;;;;;;;;;;;4.10;99.90;;;;;;6202412;23;20384;-90
2022/01/13 04:05:29;;;;;;;;;;;4.10;99.90;;;;;;6158005;23;19908;-89
2022/01/13 04:07:58;;;;;;;;;;;4.00;99.90;;;;;;6190011;23;20253;-90
2022/01/13 04:10:52;;;;;;;;;;;4.00;99.90;;;;;;6156374;23;19912;-90
2022/01/13 04:13:33;;;;;;;;;;;3.90;99.90;;;;;;6203805;23;19978;-90
2022/01/13 04:15:58;;;;;;;;;;;4.00;99.90;;;;;;6177530;23;19915;-92
2022/01/13 04:18:24;;;;;;;;;;;4.00;99.90;;;;;;6177557;23;19915;-91
2022/01/13 04:20:49;;;;;;;;;;;4.00;99.90;;;;;;6178145;23;19932;-93
2022/01/13 04:23:15;;;;;;;;;;;3.90;99.90;;;;;;6152765;23;19912;-91
2022/01/13 04:25:42;;;;;;;;;;;3.90;99.90;;;;;;6176507;23;19916;-92
2022/01/13 04:28:08;;;;;;;;;;;3.90;99.90;;;;;;6177472;23;19912;-91
2022/01/13 04:30:47;;;;;;;;;;;3.90;99.90;;;;;;6204257;23;19908;-90
2022/01/13 04:33:13;;;;;;;;;;;3.90;99.90;;;;;;6203777;23;19920;-90
2022/01/13 04:35:40;;;;;;;;;;;3.90;99.90;;;;;;6204036;23;19919;-92
2022/01/13 04:38:05;;;;;;;;;;;3.90;99.90;;;;;;6177795;23;19915;-92
2022/01/13 04:40:31;;;;;;;;;;;3.90;99.90;;;;;;6177218;23;19931;-88
2022/01/13 04:42:57;;;;;;;;;;;3.90;99.90;;;;;;6179015;23;19967;-89
2022/01/13 04:45:23;;;;;;;;;;;3.90;99.90;;;;;;6176734;23;19912;-89
2022/01/13 04:47:50;;;;;;;;;;;3.90;99.90;;;;;;6176712;23;19943;-88
2022/01/13 04:50:15;;;;;;;;;;;3.90;99.90;;;;;;6202674;23;19992;-89
2022/01/13 04:52:41;;;;;;;;;;;3.90;99.90;;;;;;6178215;23;20468;-89
2022/01/13 04:55:11;;;;;;;;;;;3.90;99.90;;;;;;6177529;23;19912;-89
2022/01/13 04:57:39;;;;;;;;;;;3.90;99.90;;;;;;6178323;23;20317;-88
2022/01/13 05:00:11;;;;;;;;;;;3.90;99.90;;;;;;6177820;23;20539;-88
2022/01/13 05:02:39;;;;;;;;;;;3.90;99.90;;;;;;6177789;23;20244;-88
2022/01/13 05:05:05;;;;;;;;;;;3.90;99.90;;;;;;6205170;23;19911;-89
2022/01/13 05:07:31;;;;;;;;;;;3.90;99.90;;;;;;6205660;23;20480;-88
2022/01/13 05:09:57;;;;;;;;;;;3.90;99.90;;;;;;6178505;23;19919;-88
2022/01/13 05:12:28;;;;;;;;;;;3.90;99.90;;;;;;6177274;23;20494;-86
2022/01/13 05:14:57;;;;;;;;;;;3.90;99.90;;;;;;6205021;23;19966;-88
2022/01/13 05:20:17;;;;;;;;;;;3.80;99.90;;;;;;6206407;23;19914;-87
2022/01/13 05:22:43;;;;;;;;;;;3.90;99.90;;;;;;6205427;23;19939;-89
2022/01/13 05:25:09;;;;;;;;;;;3.90;99.90;;;;;;6205979;23;20332;-88
2022/01/13 05:27:35;;;;;;;;;;;3.80;99.90;;;;;;6179070;23;20261;-90
2022/01/13 05:30:02;;;;;;;;;;;3.90;99.90;;;;;;6179103;23;19919;-88
2022/01/13 05:32:30;;;;;;;;;;;3.80;99.90;;;;;;6166200;23;19908;-90
2022/01/13 05:34:55;;;;;;;;;;;3.80;99.90;;;;;;6177741;23;20228;-90
2022/01/13 05:37:21;;;;;;;;;;;3.80;99.90;;;;;;6175148;23;19924;-91
2022/01/13 05:39:47;;;;;;;;;;;3.80;99.90;;;;;;6136557;23;20332;-90
2022/01/13 05:42:42;;;;;;;;;;;3.80;99.90;;;;;;6129286;23;20284;-91
2022/01/13 05:45:28;;;;;;;;;;;3.80;99.90;;;;;;6140414;23;19919;-92
2022/01/13 05:47:55;;;;;;;;;;;3.80;99.90;;;;;;6121506;23;19936;-92
2022/01/13 05:50:39;;;;;;;;;;;3.80;99.90;;;;;;6144343;23;20234;-91
2022/01/13 05:53:35;;;;;;;;;;;;;;;;;;;;;
2022/01/13 05:56:14;;;;;;;;;;;3.80;99.90;;;;;;6118159;23;21073;-91
2022/01/13 06:01:57;;;;;;;;;;;3.80;99.90;;;;;;6130991;23;20276;-92
2022/01/13 06:04:46;;;;;;;;;;;3.80;99.90;;;;;;6122443;23;20313;-91
2022/01/13 06:07:26;;;;;;;;;;;3.80;99.90;;;;;;6130075;23;20360;-89
2022/01/13 06:10:10;;;;;;;;;;;3.80;99.90;;;;;;6204901;23;20390;-90
2022/01/13 06:12:42;;;;;;;;;;;3.80;99.90;;;;;;6188144;23;19964;-91
2022/01/13 06:15:08;;;;;;;;;;;3.80;99.90;;;;;;6099461;23;20317;-91
2022/01/13 06:17:48;;;;;;;;;;;3.80;99.90;;;;;;6140951;23;19908;-91
2022/01/13 06:23:18;;;;;;;;;;;3.80;99.90;;;;;;6139773;23;20075;-92
2022/01/13 06:25:53;;;;;;;;;;;3.80;99.90;;;;;;6113311;23;19912;-90
2022/01/13 06:28:21;;;;;;;;;;;3.80;99.90;;;;;;6137019;23;19908;-90
2022/01/13 06:31:06;;;;;;;;;;;3.80;99.90;;;;;;6092977;23;19920;-89
2022/01/13 06:33:40;;;;;;;;;;;3.80;99.90;;;;;;6171277;23;19915;-90
2022/01/13 06:36:08;;;;;;;;;;;3.80;99.90;;;;;;6085633;23;19912;-87
2022/01/13 06:38:40;;;;;;;;;;;3.80;99.90;;;;;;6134009;23;19919;-88
2022/01/13 06:41:08;;;;;;;;;;;3.80;99.90;;;;;;6133853;23;19908;-91
2022/01/13 06:43:35;;;;;;;;;;;3.80;99.90;;;;;;6189670;23;19947;-87
2022/01/13 06:46:16;;;;;;;;;;;;;;;;;;;;;
2022/01/13 06:48:48;;;;;;;;;;;3.80;99.90;;;;;;6187617;23;19916;-87
2022/01/13 06:51:13;;;;;;;;;;;3.80;99.90;;;;;;6164063;23;19958;-87
2022/01/13 06:53:42;;;;;;;;;;;3.80;99.90;;;;;;6176233;23;20329;-86
2022/01/13 06:56:10;;;;;;;;;;;3.80;99.90;;;;;;6176600;23;19989;-88
2022/01/13 06:59:04;;;;;;;;;;;;;;;;;;;;;
2022/01/13 07:02:12;;;;;;;;;;;3.90;99.90;;;;;;6137848;23;19919;-88
2022/01/13 07:08:35;;;;;;;;;;;3.90;99.90;;;;;;6042253;23;19914;-90
2022/01/13 07:11:40;;;;;;;;;;;3.90;99.90;;;;;;6029774;23;20379;-90
2022/01/13 07:14:12;;;;;;;;;;;4.00;99.90;;;;;;6071313;23;19913;-89
2022/01/13 07:16:48;;;;;;;;;;;4.00;99.90;;;;;;6058027;23;19975;-89
2022/01/13 07:19:16;;;;;;;;;;;4.00;99.90;;;;;;6107038;23;19944;-89
2022/01/13 07:21:54;;;;;;;;;;;;;;;;;;;;;
2022/01/13 07:24:22;;;;;;;;;;;3.90;99.90;;;;;;6143562;23;20185;-90
2022/01/13 07:26:58;;;;;;;;;;;4.10;99.90;;;;;;6125876;23;19908;-87
2022/01/13 07:29:36;;;;;;;;;;;4.00;99.90;;;;;;6151005;23;20003;-88
2022/01/13 07:32:04;;;;;;;;;;;4.00;99.90;;;;;;6134206;23;20272;-88
2022/01/13 07:37:18;;;;;;;;;;;4.00;99.90;;;;;;6080611;23;19941;-88
2022/01/13 07:39:44;;;;;;;;;;;3.90;99.90;;;;;;6168652;23;20432;-88
2022/01/13 07:46:02;;;;;;;;;;;;;;;;;;;;;
2022/01/13 07:54:42;;;;;;;;;;;3.90;99.90;;;;;;6097550;23;19946;-88
2022/01/13 08:00:30;;;;;;;;;;;3.90;99.90;;;;;;6022398;23;19921;-88
2022/01/13 08:28:31;;;;;;;;;;;4.00;99.90;;;;;;5945014;24;20066;-88
2022/01/13 08:31:25;;;;;;;;;;;4.00;99.90;;;;;;5858340;24;20293;-88
2022/01/13 08:52:50;;;;;;;;;;;4.10;99.90;;;;;;5653574;24;4904345;-88
2022/01/13 09:08:30;;;;;;;;;;;4.10;99.90;;;;;;5826412;24;20080;-89
2022/01/13 09:11:08;;;;;;;;;;;4.10;99.90;;;;;;5766302;24;19991;-88
2022/01/13 09:13:44;;;;;;;;;;;4.10;99.90;;;;;;5825731;23;20307;-89
2022/01/13 09:16:48;;;;;;;;;;;4.10;99.90;;;;;;5926606;23;20021;-89
2022/01/13 09:31:51;;;;;;;;;;;4.20;99.90;;;;;;6097909;23;19948;-90
2022/01/13 09:34:26;;;;;;;;;;;4.20;99.90;;;;;;6095016;23;19927;-89
2022/01/13 09:37:12;;;;;;;;;;;4.20;99.90;;;;;;6085622;23;19915;-88
2022/01/13 09:39:58;;;;;;;;;;;4.20;99.90;;;;;;6121547;23;19913;-89
2022/01/13 09:42:49;;;;;;;;;;;4.20;99.90;;;;;;6162644;23;19927;-90
2022/01/13 09:45:33;;;;;;;;;;;4.20;99.90;;;;;;6138097;23;20027;-89
2022/01/13 09:48:02;;;;;;;;;;;4.20;99.90;;;;;;6120768;23;20272;-89
2022/01/13 09:50:28;;;;;;;;;;;4.20;99.90;;;;;;6119173;23;19939;-90
2022/01/13 09:53:17;;;;;;;;;;;4.20;99.90;;;;;;6154823;23;19919;-90
2022/01/13 09:56:02;;;;;;;;;;;4.20;99.90;;;;;;6156933;23;20113;-90
2022/01/13 10:01:42;;;;;;;;;;;4.20;99.90;;;;;;6159399;23;19916;-90
2022/01/13 10:04:13;;;;;;;;;;;4.30;99.90;;;;;;6136955;23;19916;-88
2022/01/13 10:06:50;;;;;;;;;;;4.30;99.90;;;;;;6137144;23;19912;-89
2022/01/13 10:09:51;;;;;;;;;;;4.30;99.90;;;;;;6112079;22;19918;-89
2022/01/13 10:12:40;;;;;;;;;;;4.20;99.90;;;;;;6144453;23;20209;-89
2022/01/13 10:18:10;;;;;;;;;;;4.20;99.90;;;;;;6137770;23;19915;-89
2022/01/13 10:20:36;;;;;;;;;;;4.20;99.90;;;;;;6091241;23;19923;-89
2022/01/13 10:29:20;;;;;;;;;;;4.30;99.90;;;;;;6146766;23;19913;-90
2022/01/13 10:31:50;;;;;;;;;;;4.20;99.90;;;;;;6147683;23;20415;-89
2022/01/13 10:35:10;;;;;;;;;;;4.20;99.90;;;;;;6132017;23;19918;-89
2022/01/13 10:52:25;;;;;;;;;;;4.30;99.90;;;;;;6090406;23;19924;-89
2022/01/13 10:55:25;;;;;;;;;;;4.30;99.90;;;;;;6151513;23;20395;-89
2022/01/13 10:58:23;;;;;;;;;;;4.30;99.90;;;;;;6111913;23;19961;-89
2022/01/13 11:00:59;;;;;;;;;;;4.40;99.90;;;;;;6096053;23;19978;-89
2022/01/13 11:04:04;;;;;;;;;;;4.40;99.90;;;;;;6133195;23;20392;-90
2022/01/13 11:09:42;;;;;;;;;;;;;;;;;;;;;
2022/01/13 11:12:24;;;;;;;;;;;;;;;;;;;;;
2022/01/13 11:15:38;;;;;;;;;;;;;;;;;;;;;
2022/01/13 13:43:38;;;;;;;;;;;5.00;99.90;;;;;;6179316;22;19943;-88
2022/01/13 13:46:28;;;;;;;;;;;5.00;99.90;;;;;;6097576;23;19921;-89
2022/01/13 13:49:14;;;;;;;;;;;5.00;99.90;;;;;;6064434;23;20396;-89
2022/01/13 13:51:42;;;;;;;;;;;5.00;99.90;;;;;;6025074;23;19912;-89
2022/01/13 13:54:45;;;;;;;;;;;5.00;99.90;;;;;;6069651;23;20309;-89
2022/01/13 14:00:44;;;;;;;;;;;5.00;99.90;;;;;;6085409;23;19914;-90
2022/01/13 14:03:14;;;;;;;;;;;5.10;99.90;;;;;;6044105;23;19913;-89
2022/01/13 14:05:47;;;;;;;;;;;5.00;99.90;;;;;;6143074;23;19913;-89
2022/01/13 14:08:24;;;;;;;;;;;5.00;99.90;;;;;;6109787;23;19988;-89
2022/01/13 14:10:56;;;;;;;;;;;5.10;99.90;;;;;;6078695;23;19920;-89
2022/01/13 14:13:22;;;;;;;;;;;5.00;99.90;;;;;;6112178;23;19912;-89
2022/01/13 14:15:55;;;;;;;;;;;5.00;99.90;;;;;;6110522;23;19944;-89
2022/01/13 14:18:43;;;;;;;;;;;5.00;99.90;;;;;;6092652;23;19916;-89
2022/01/13 14:21:17;;;;;;;;;;;5.00;99.90;;;;;;6052320;23;19913;-89
2022/01/13 14:27:10;;;;;;;;;;;5.00;99.90;;;;;;6144959;23;19920;-90
2022/01/13 14:29:38;;;;;;;;;;;5.00;99.90;;;;;;6125811;23;19909;-89
2022/01/13 14:32:17;;;;;;;;;;;5.00;99.90;;;;;;6155209;23;20408;-90
2022/01/13 14:34:43;;;;;;;;;;;5.00;99.90;;;;;;6131598;23;20420;-88
2022/01/13 14:39:42;;;;;;;;;;;5.00;99.90;;;;;;6138369;23;19924;-89
2022/01/13 14:42:26;;;;;;;;;;;5.00;99.90;;;;;;6140751;23;20333;-88
2022/01/13 14:45:11;;;;;;;;;;;5.00;99.90;;;;;;6112062;23;19943;-89
2022/01/13 14:47:37;;;;;;;;;;;5.00;99.90;;;;;;6136308;23;19913;-91
2022/01/13 14:50:05;;;;;;;;;;;5.00;99.90;;;;;;6153983;23;20129;-90
2022/01/13 14:52:31;;;;;;;;;;;5.00;99.90;;;;;;6150295;23;19978;-91
2022/01/13 14:55:02;;;;;;;;;;;4.90;99.90;;;;;;6138521;23;19916;-91
2022/01/13 14:57:28;;;;;;;;;;;4.90;99.90;;;;;;6149582;23;19916;-91
2022/01/13 14:59:53;;;;;;;;;;;4.90;99.90;;;;;;6152626;23;20497;-90
2022/01/13 15:02:22;;;;;;;;;;;5.00;99.90;;;;;;6125347;23;19916;-89
2022/01/13 15:04:48;;;;;;;;;;;5.00;99.90;;;;;;6151239;23;20353;-89
2022/01/13 15:07:13;;;;;;;;;;;4.90;99.90;;;;;;6149653;23;19916;-90
2022/01/13 15:09:39;;;;;;;;;;;4.90;99.90;;;;;;6150669;23;20244;-90
2022/01/13 15:12:05;;;;;;;;;;;4.90;99.90;;;;;;6149589;23;20546;-90
2022/01/13 15:14:30;;;;;;;;;;;4.90;99.90;;;;;;6137163;23;20291;-91
2022/01/13 15:16:56;;;;;;;;;;;4.90;99.90;;;;;;6150614;23;19936;-90
2022/01/13 15:19:27;;;;;;;;;;;4.90;99.90;;;;;;6152083;23;19908;-89
2022/01/13 15:21:53;;;;;;;;;;;4.90;99.90;;;;;;6149377;23;19939;-91
2022/01/13 15:24:19;;;;;;;;;;;4.90;99.90;;;;;;6152168;23;19909;-90
2022/01/13 15:26:44;;;;;;;;;;;4.90;99.90;;;;;;6175221;23;19915;-90
2022/01/13 15:29:10;;;;;;;;;;;4.90;99.90;;;;;;6152058;23;19912;-90
2022/01/13 15:31:37;;;;;;;;;;;4.90;99.90;;;;;;6150889;23;19958;-91
2022/01/13 15:34:03;;;;;;;;;;;4.90;99.90;;;;;;6137659;23;20317;-91
2022/01/13 15:36:28;;;;;;;;;;;4.90;99.90;;;;;;6148967;23;19935;-90
2022/01/13 15:39:00;;;;;;;;;;;4.90;99.90;;;;;;6183684;23;20359;-89
2022/01/13 15:41:27;;;;;;;;;;;4.90;99.90;;;;;;6172690;23;19959;-91
2022/01/13 15:43:55;;;;;;;;;;;4.90;99.90;;;;;;6161896;23;19924;-91
2022/01/13 15:46:21;;;;;;;;;;;4.90;99.90;;;;;;6159686;23;20321;-90
2022/01/13 15:48:47;;;;;;;;;;;4.90;99.90;;;;;;6182739;23;19915;-90
2022/01/13 15:51:14;;;;;;;;;;;4.90;99.90;;;;;;6209513;23;20406;-91
2022/01/13 15:53:44;;;;;;;;;;;4.90;99.90;;;;;;6120563;23;19917;-91
2022/01/13 16:04:29;;;;;;;;;;;4.90;99.90;;;;;;6161524;23;20381;-90
2022/01/13 16:07:03;;;;;;;;;;;4.90;99.90;;;;;;6132447;23;19920;-93
2022/01/13 16:09:29;;;;;;;;;;;4.90;99.90;;;;;;6149366;23;20004;-89
2022/01/13 16:11:56;;;;;;;;;;;4.90;99.90;;;;;;6117353;23;20003;-92
2022/01/13 16:14:22;;;;;;;;;;;4.90;99.90;;;;;;6145380;23;19908;-91
2022/01/13 16:16:48;;;;;;;;;;;4.90;99.90;;;;;;6108927;23;19943;-92
2022/01/13 16:19:14;;;;;;;;;;;4.90;99.90;;;;;;6146929;23;19942;-94
2022/01/13 16:21:42;;;;;;;;;;;4.90;99.90;;;;;;6156211;23;19940;-89
2022/01/13 16:24:19;;;;;;;;;;;4.90;99.90;;;;;;6156227;23;20252;-92
2022/01/13 16:26:49;;;;;;;;;;;5.00;99.90;;;;;;6137545;23;19961;-93
2022/01/13 16:29:33;;;;;;;;;;;5.00;99.90;;;;;;6133098;23;19912;-93
2022/01/13 16:31:59;;;;;;;;;;;5.00;99.90;;;;;;6154701;23;19963;-93
2022/01/13 16:34:25;;;;;;;;;;;5.00;99.90;;;;;;6118171;23;19916;-89
2022/01/13 16:36:50;;;;;;;;;;;5.00;99.90;;;;;;6150294;23;19918;-92
2022/01/13 16:39:16;;;;;;;;;;;5.00;99.90;;;;;;6156471;23;19920;-95
2022/01/13 16:41:43;;;;;;;;;;;5.00;99.90;;;;;;6156582;23;19936;-91
2022/01/13 16:44:11;;;;;;;;;;;5.00;99.90;;;;;;6158645;23;19923;-93
2022/01/13 16:46:37;;;;;;;;;;;5.10;99.90;;;;;;6157401;23;20223;-93
2022/01/13 16:49:02;;;;;;;;;;;5.10;99.90;;;;;;6140796;23;19908;-93
2022/01/13 16:51:29;;;;;;;;;;;5.10;99.90;;;;;;6131865;23;19904;-92
2022/01/13 16:54:04;;;;;;;;;;;5.20;99.90;;;;;;6116965;23;19916;-89
2022/01/13 16:56:29;;;;;;;;;;;5.30;99.90;;;;;;6136910;23;19912;-88
2022/01/13 16:58:55;;;;;;;;;;;5.30;99.90;;;;;;6136976;23;19912;-90
2022/01/13 17:01:21;;;;;;;;;;;5.30;99.90;;;;;;6156577;23;19915;-90
2022/01/13 17:03:47;;;;;;;;;;;5.20;99.90;;;;;;6157794;23;19956;-95
2022/01/13 17:06:12;;;;;;;;;;;5.10;99.90;;;;;;6143466;23;19912;-93
2022/01/13 17:08:41;;;;;;;;;;;5.10;99.90;;;;;;6112121;23;20288;-90
2022/01/13 17:11:06;;;;;;;;;;;5.10;99.90;;;;;;6110823;23;19919;-93
2022/01/13 17:13:34;;;;;;;;;;;5.10;99.90;;;;;;6137572;23;20257;-92
2022/01/13 17:16:00;;;;;;;;;;;5.10;99.90;;;;;;6160286;23;19916;-91
2022/01/13 17:18:25;;;;;;;;;;;5.10;99.90;;;;;;6179915;23;19912;-91
2022/01/13 17:20:54;;;;;;;;;;;5.10;99.90;;;;;;6154229;23;19916;-88
2022/01/13 17:23:20;;;;;;;;;;;5.10;99.90;;;;;;6183487;23;19987;-93
2022/01/13 17:25:47;;;;;;;;;;;5.10;99.90;;;;;;6163046;23;19915;-91
2022/01/13 17:28:13;;;;;;;;;;;5.10;99.90;;;;;;6149015;23;19915;-91
2022/01/13 17:30:42;;;;;;;;;;;5.00;99.90;;;;;;6165850;23;20321;-94
2022/01/13 17:33:09;;;;;;;;;;;5.00;99.90;;;;;;6178721;23;19912;-92
2022/01/13 17:35:36;;;;;;;;;;;5.10;99.90;;;;;;6174550;23;20252;-93
2022/01/13 17:38:01;;;;;;;;;;;5.10;99.90;;;;;;6180914;23;19936;-92
2022/01/13 17:40:27;;;;;;;;;;;5.10;99.90;;;;;;6175968;23;19915;-90
2022/01/13 17:42:54;;;;;;;;;;;5.10;99.90;;;;;;6152949;23;19917;-93
2022/01/13 17:45:19;;;;;;;;;;;5.00;99.90;;;;;;6155750;23;19908;-95
2022/01/13 17:47:46;;;;;;;;;;;5.10;99.90;;;;;;6179632;23;20030;-95
2022/01/13 17:50:14;;;;;;;;;;;5.10;99.90;;;;;;6162636;23;19959;-89
2022/01/13 17:52:40;;;;;;;;;;;5.00;99.90;;;;;;6138409;23;20250;-93
2022/01/13 17:55:06;;;;;;;;;;;5.00;99.90;;;;;;6165486;23;20245;-95
2022/01/13 17:57:32;;;;;;;;;;;5.00;99.90;;;;;;6164084;23;20388;-94
2022/01/13 17:59:58;;;;;;;;;;;5.00;99.90;;;;;;6165702;23;19908;-95
2022/01/13 18:02:23;;;;;;;;;;;5.00;99.90;;;;;;6116427;23;20306;-92
2022/01/13 18:04:58;;;;;;;;;;;5.00;99.90;;;;;;6151809;23;19912;-91
2022/01/13 18:07:23;;;;;;;;;;;5.00;99.90;;;;;;6167945;23;19922;-92
2022/01/13 18:09:49;;;;;;;;;;;5.10;99.90;;;;;;6179131;23;20306;-93
2022/01/13 18:12:25;;;;;;;;;;;5.00;99.90;;;;;;6143234;23;19915;-90
2022/01/13 18:14:56;;;;;;;;;;;5.10;99.90;;;;;;6105286;23;19960;-92
2022/01/13 18:17:22;;;;;;;;;;;5.00;99.90;;;;;;6165353;23;19935;-94
2022/01/13 18:19:48;;;;;;;;;;;5.10;99.90;;;;;;6185635;23;20392;-90
2022/01/13 18:22:13;;;;;;;;;;;5.10;99.90;;;;;;6149867;23;19975;-89
2022/01/13 18:24:39;;;;;;;;;;;5.20;99.90;;;;;;6145537;23;19919;-89
2022/01/13 18:27:04;;;;;;;;;;;5.20;99.90;;;;;;6148756;23;20297;-87
2022/01/13 18:29:31;;;;;;;;;;;5.10;99.90;;;;;;6121451;23;19913;-91
2022/01/13 18:31:57;;;;;;;;;;;5.10;99.90;;;;;;6116830;23;19913;-91
2022/01/13 18:34:28;;;;;;;;;;;5.10;99.90;;;;;;6141266;23;19913;-90
2022/01/13 18:36:56;;;;;;;;;;;5.10;99.90;;;;;;6154835;23;20297;-85
2022/01/13 18:39:22;;;;;;;;;;;5.10;99.90;;;;;;6175718;23;20336;-90
2022/01/13 18:41:51;;;;;;;;;;;5.10;99.90;;;;;;6174171;23;19979;-91
2022/01/13 18:44:17;;;;;;;;;;;5.10;99.90;;;;;;6172232;23;20359;-89
2022/01/13 18:46:48;;;;;;;;;;;5.20;99.90;;;;;;6173589;23;19955;-88
2022/01/13 18:49:15;;;;;;;;;;;5.10;99.90;;;;;;6172825;23;19916;-90
2022/01/13 18:51:40;;;;;;;;;;;5.10;99.90;;;;;;6159842;23;20372;-90
2022/01/13 18:54:06;;;;;;;;;;;5.10;99.90;;;;;;6145314;23;19971;-91
2022/01/13 18:56:33;;;;;;;;;;;5.10;99.90;;;;;;6150589;23;19912;-90
2022/01/13 18:58:59;;;;;;;;;;;5.10;99.90;;;;;;6146435;23;19913;-90
2022/01/13 19:01:25;;;;;;;;;;;5.20;99.90;;;;;;6148692;23;20249;-91
2022/01/13 19:03:50;;;;;;;;;;;5.10;99.90;;;;;;6174220;23;20518;-91
2022/01/13 19:06:16;;;;;;;;;;;5.10;99.90;;;;;;6165748;23;20585;-90
2022/01/13 19:08:42;;;;;;;;;;;5.10;99.90;;;;;;6142625;23;20211;-92
2022/01/13 19:11:07;;;;;;;;;;;5.20;99.90;;;;;;6157995;23;19912;-92
2022/01/13 19:13:33;;;;;;;;;;;5.20;99.90;;;;;;6176356;23;20284;-94
2022/01/13 19:15:59;;;;;;;;;;;5.20;99.90;;;;;;6175134;23;19908;-91
2022/01/13 19:18:36;;;;;;;;;;;5.20;99.90;;;;;;6164421;23;19916;-93
2022/01/13 19:21:02;;;;;;;;;;;5.20;99.90;;;;;;6177294;23;19918;-90
2022/01/13 19:23:30;;;;;;;;;;;5.20;99.90;;;;;;6177125;23;19988;-92
2022/01/13 19:25:59;;;;;;;;;;;5.20;99.90;;;;;;6177379;23;20004;-91
2022/01/13 19:28:25;;;;;;;;;;;5.20;99.90;;;;;;6182545;23;19912;-91
2022/01/13 19:30:51;;;;;;;;;;;5.20;99.90;;;;;;6178176;23;19966;-90
2022/01/13 19:33:17;;;;;;;;;;;5.20;99.90;;;;;;6179850;23;19996;-91
2022/01/13 19:36:04;;;;;;;;;;;5.30;99.90;;;;;;6162800;23;19904;-90
2022/01/13 19:38:30;;;;;;;;;;;5.30;99.90;;;;;;6115892;23;19908;-89
2022/01/13 19:40:58;;;;;;;;;;;5.20;99.90;;;;;;6167068;23;19905;-90
2022/01/13 19:43:23;;;;;;;;;;;5.20;99.90;;;;;;6147619;23;20254;-89
2022/01/13 19:45:49;;;;;;;;;;;5.20;99.90;;;;;;6132342;23;20392;-88
2022/01/13 19:48:14;;;;;;;;;;;5.30;99.90;;;;;;6101136;23;19918;-88
2022/01/13 19:50:42;;;;;;;;;;;5.20;99.90;;;;;;6109761;23;19963;-87
2022/01/13 19:53:29;;;;;;;;;;;5.20;99.90;;;;;;6119803;23;19917;-87
2022/01/13 19:55:58;;;;;;;;;;;5.20;99.90;;;;;;6140157;23;20396;-87
2022/01/13 19:58:24;;;;;;;;;;;5.30;99.90;;;;;;6133757;23;19915;-88
2022/01/13 20:00:50;;;;;;;;;;;5.30;99.90;;;;;;6145416;23;19908;-89
2022/01/13 20:03:15;;;;;;;;;;;5.30;99.90;;;;;;6146551;23;19919;-91
2022/01/13 20:05:43;;;;;;;;;;;5.30;99.90;;;;;;6144225;23;19965;-90
2022/01/13 20:08:11;;;;;;;;;;;5.30;99.90;;;;;;6142593;23;19912;-89
2022/01/13 20:10:37;;;;;;;;;;;5.30;99.90;;;;;;6145724;23;19951;-89
2022/01/13 20:13:03;;;;;;;;;;;5.30;99.90;;;;;;6144185;23;19917;-88
2022/01/13 20:15:30;;;;;;;;;;;5.30;99.90;;;;;;6143630;23;19912;-89